Terminal Aerodrome Forecast
Issued by NWS

Home | Current Version | Previous Version | Text Only | Print | Product List | Glossary Off
Versions: 1 2 3 4 5 6 7 8 9 10 11 12 13 14 15 16 17 18 19 20 21 22 23 24 25 26 27 28 29

983
FTUS43 KBIS 110402 AAA
TAFDIK
TAF AMD
KDIK 110402Z 1104/1124 08005KT P6SM OVC009
     FM111000 14004KT 3SM -SN BR OVC006
     FM111200 15004KT 2SM -SN BR OVC004
     FM111600 08005KT 3SM -SN BR OVC006=

USA.gov is the U.S. government's official web portal to all federal, state and local government web resources and services.